createdAt,value
2022-10-05T00:03:22.626Z,9.55
2022-10-05T00:08:34.108Z,9.54
2022-10-05T00:13:36.632Z,9.55
2022-10-05T00:18:40.109Z,9.54
2022-10-05T00:23:42.801Z,9.52
2022-10-05T00:28:45.899Z,9.50
2022-10-05T00:33:48.538Z,9.52
2022-10-05T00:38:51.061Z,9.53
2022-10-05T00:44:31.010Z,9.54
2022-10-05T00:49:55.432Z,9.54
2022-10-05T00:55:22.634Z,9.52
2022-10-05T01:00:26.817Z,9.51
2022-10-05T01:05:51.008Z,9.52
2022-10-05T01:11:04.083Z,9.54
2022-10-05T01:16:14.766Z,9.54
2022-10-05T01:21:25.497Z,9.55
2022-10-05T01:26:46.812Z,9.55
2022-10-05T01:32:11.284Z,9.54
2022-10-05T01:37:32.613Z,9.52
2022-10-05T01:42:56.630Z,9.51
2022-10-05T01:48:09.577Z,9.53
2022-10-05T01:53:31.753Z,9.54
2022-10-05T01:59:16.182Z,9.55
2022-10-05T02:04:56.979Z,9.58
2022-10-05T02:10:18.084Z,9.59
2022-10-05T02:15:27.224Z,9.61
2022-10-05T02:20:34.260Z,9.62
2022-10-05T02:25:41.953Z,9.61
2022-10-05T02:30:54.173Z,9.58
2022-10-05T02:36:31.742Z,9.55
2022-10-05T02:41:44.790Z,9.53
2022-10-05T02:46:57.854Z,9.52
2022-10-05T02:52:38.556Z,9.50
2022-10-05T02:57:53.105Z,9.47
2022-10-05T03:03:23.570Z,9.45
2022-10-05T03:08:34.792Z,9.44
2022-10-05T03:13:55.789Z,9.44
2022-10-05T03:19:23.093Z,9.43
2022-10-05T03:24:28.237Z,9.44
2022-10-05T03:29:54.538Z,9.45
2022-10-05T03:35:07.248Z,9.46
2022-10-05T03:40:34.470Z,9.47
2022-10-05T03:45:48.748Z,9.49
2022-10-05T03:51:01.424Z,9.50
2022-10-05T03:56:14.541Z,9.53
2022-10-05T04:01:22.570Z,9.57
2022-10-05T04:06:38.415Z,9.60
2022-10-05T04:12:18.422Z,9.62
2022-10-05T04:17:34.204Z,9.64
2022-10-05T04:22:47.670Z,9.64
2022-10-05T04:28:15.552Z,9.64
2022-10-05T04:33:18.539Z,9.65
2022-10-05T04:39:06.105Z,9.65
2022-10-05T04:44:27.275Z,9.66
2022-10-05T04:49:29.578Z,9.70
2022-10-05T04:54:50.570Z,9.71
2022-10-05T05:00:11.897Z,9.71
2022-10-05T05:05:16.958Z,9.73
2022-10-05T05:10:28.429Z,9.75
2022-10-05T05:15:40.148Z,9.78
2022-10-05T05:20:50.219Z,9.84
2022-10-05T05:26:00.644Z,9.91
2022-10-05T05:31:19.987Z,10.00
2022-10-05T05:36:39.853Z,10.11
2022-10-05T05:41:53.480Z,10.21
2022-10-05T05:47:04.928Z,10.31
2022-10-05T05:52:22.206Z,10.41
2022-10-05T05:57:34.248Z,10.55
2022-10-05T06:02:46.307Z,10.71
2022-10-05T06:07:53.796Z,10.91
2022-10-05T06:13:03.013Z,11.11
2022-10-05T06:18:29.798Z,11.26
2022-10-05T06:23:57.754Z,11.38
2022-10-05T06:29:05.617Z,11.49
2022-10-05T06:34:38.291Z,11.50
2022-10-05T06:40:23.814Z,11.47
2022-10-05T06:45:41.671Z,11.50
2022-10-05T06:50:56.067Z,11.63
2022-10-05T06:56:26.675Z,11.88
2022-10-05T07:02:06.609Z,12.25
2022-10-05T07:07:23.601Z,12.88
2022-10-05T07:12:39.152Z,13.48
2022-10-05T07:18:12.388Z,13.78
2022-10-05T07:23:35.365Z,13.87
2022-10-05T07:29:02.091Z,13.90
2022-10-05T07:34:20.358Z,13.91
2022-10-05T07:40:00.099Z,13.87
2022-10-05T07:45:28.084Z,13.89
2022-10-05T07:50:58.567Z,14.07
2022-10-05T07:56:14.536Z,14.31
2022-10-05T08:01:24.649Z,14.58
2022-10-05T08:06:35.727Z,14.85
2022-10-05T08:11:53.297Z,15.02
2022-10-05T08:17:00.133Z,14.92
2022-10-05T08:22:09.738Z,14.91
2022-10-05T08:27:20.614Z,14.84
2022-10-05T08:32:25.918Z,14.94
2022-10-05T08:37:35.536Z,15.33
2022-10-05T08:42:58.697Z,15.73
2022-10-05T08:48:25.741Z,15.75
2022-10-05T08:53:56.910Z,15.37
2022-10-05T08:59:08.254Z,15.04
2022-10-05T09:04:41.145Z,14.75
2022-10-05T09:09:47.192Z,14.57
2022-10-05T09:15:24.847Z,14.47
2022-10-05T09:20:30.768Z,14.46
2022-10-05T09:26:11.026Z,14.47
2022-10-05T09:31:26.293Z,14.53
2022-10-05T09:36:47.456Z,14.67
2022-10-05T09:42:19.691Z,14.84
2022-10-05T09:47:59.895Z,15.06
2022-10-05T09:53:40.542Z,15.26
2022-10-05T09:59:07.296Z,15.49
2022-10-05T10:04:48.432Z,15.70
2022-10-05T10:09:59.679Z,15.84
2022-10-05T10:15:39.799Z,15.96
2022-10-05T10:21:19.940Z,16.16
2022-10-05T10:26:48.847Z,16.44
2022-10-05T10:32:06.651Z,16.68
2022-10-05T10:37:17.913Z,16.86
2022-10-05T10:42:39.400Z,17.01
2022-10-05T10:48:00.685Z,17.07
2022-10-05T10:53:41.786Z,17.24
2022-10-05T10:59:03.181Z,17.31
2022-10-05T11:04:35.210Z,17.33
2022-10-05T11:10:02.809Z,17.29
2022-10-05T11:15:40.313Z,17.33
2022-10-05T11:20:48.869Z,17.32
2022-10-05T11:26:29.131Z,17.30
2022-10-05T11:32:09.565Z,17.26
2022-10-05T11:37:49.835Z,17.31
2022-10-05T11:43:25.067Z,17.35
2022-10-05T11:48:51.266Z,17.41
2022-10-05T11:54:03.083Z,17.53
2022-10-05T11:59:34.608Z,17.68
2022-10-05T12:05:06.181Z,17.70
2022-10-05T12:10:36.821Z,17.65
2022-10-05T12:16:01.615Z,17.47
2022-10-05T12:21:27.625Z,17.33
2022-10-05T12:26:41.789Z,17.22
2022-10-05T12:32:08.971Z,17.22
2022-10-05T12:37:16.384Z,17.18
2022-10-05T12:42:41.617Z,17.28
2022-10-05T12:47:53.983Z,17.50
2022-10-05T12:53:20.633Z,17.54
2022-10-05T12:58:41.985Z,17.55
2022-10-05T13:04:10.555Z,17.55
2022-10-05T13:09:29.196Z,17.54
2022-10-05T13:14:34.812Z,17.51
2022-10-05T13:20:07.479Z,17.47
2022-10-05T13:25:18.703Z,17.44
2022-10-05T13:30:22.064Z,17.35
2022-10-05T13:35:40.186Z,17.28
2022-10-05T13:40:53.389Z,17.20
2022-10-05T13:46:07.312Z,17.11
2022-10-05T13:51:47.545Z,17.01
2022-10-05T13:56:58.789Z,16.93
2022-10-05T14:02:01.303Z,16.85
2022-10-05T14:07:41.578Z,16.78
2022-10-05T14:12:45.748Z,16.68
2022-10-05T14:17:52.473Z,16.59
2022-10-05T14:22:59.922Z,16.51
2022-10-05T14:28:11.936Z,16.44
2022-10-05T14:33:16.926Z,16.36
2022-10-05T14:38:29.435Z,16.34
2022-10-05T14:43:32.731Z,16.35
2022-10-05T14:48:46.753Z,16.25
2022-10-05T14:54:14.800Z,16.08
2022-10-05T14:59:36.063Z,15.87
2022-10-05T15:04:49.865Z,15.71
2022-10-05T15:10:30.163Z,15.57
2022-10-05T15:16:01.363Z,15.39
2022-10-05T15:21:42.282Z,15.21
2022-10-05T15:26:48.091Z,15.02
2022-10-05T15:32:16.772Z,14.90
2022-10-05T15:37:28.403Z,14.77
2022-10-05T15:42:38.441Z,14.67
2022-10-05T15:48:03.073Z,14.52
2022-10-05T15:53:19.908Z,14.37
2022-10-05T15:58:31.209Z,14.19
2022-10-05T16:04:01.040Z,13.99
2022-10-05T16:09:11.531Z,13.79
2022-10-05T16:14:32.465Z,13.60
2022-10-05T16:19:54.292Z,13.44
2022-10-05T16:25:11.557Z,13.30
2022-10-05T16:30:20.898Z,13.19
2022-10-05T16:35:55.317Z,13.09
2022-10-05T16:41:38.061Z,12.99
2022-10-05T16:46:49.363Z,12.87
2022-10-05T16:51:57.888Z,12.78
2022-10-05T16:57:17.615Z,12.73
2022-10-05T17:02:45.621Z,12.70
2022-10-05T17:08:16.944Z,12.66
2022-10-05T17:13:57.670Z,12.65
2022-10-05T17:19:20.739Z,12.66
2022-10-05T17:24:42.007Z,12.68
2022-10-05T17:29:47.481Z,12.67
2022-10-05T17:35:18.553Z,12.65
2022-10-05T17:40:33.648Z,12.61
2022-10-05T17:45:38.137Z,12.57
2022-10-05T17:51:07.384Z,12.50
2022-10-05T17:56:09.992Z,12.41
2022-10-05T18:01:26.766Z,12.34
2022-10-05T18:06:34.335Z,12.28
2022-10-05T18:11:40.884Z,12.23
2022-10-05T18:17:12.559Z,12.21
2022-10-05T18:22:18.379Z,12.20
2022-10-05T18:27:41.921Z,12.19
2022-10-05T18:32:53.855Z,12.20
2022-10-05T18:38:06.855Z,12.20
2022-10-05T18:43:36.485Z,12.19
2022-10-05T18:48:57.940Z,12.16
2022-10-05T18:54:38.283Z,12.13
2022-10-05T18:59:54.778Z,12.11
2022-10-05T19:05:18.967Z,12.09
2022-10-05T19:11:11.343Z,12.08
2022-10-05T19:16:38.604Z,12.08
2022-10-05T19:22:12.371Z,12.07
2022-10-05T19:27:55.705Z,12.07
2022-10-05T19:33:17.460Z,12.05
2022-10-05T19:38:31.882Z,12.02
2022-10-05T19:43:37.996Z,11.99
2022-10-05T19:48:49.815Z,11.96
2022-10-05T19:54:05.020Z,11.91
2022-10-05T19:59:13.298Z,11.87
2022-10-05T20:04:36.026Z,11.85
2022-10-05T20:10:18.504Z,11.84
2022-10-05T20:15:43.966Z,11.86
2022-10-05T20:20:49.290Z,11.89
2022-10-05T20:26:11.371Z,11.91
2022-10-05T20:31:18.477Z,11.93
2022-10-05T20:36:21.035Z,11.96
2022-10-05T20:41:23.563Z,11.97
2022-10-05T20:46:26.129Z,11.99
2022-10-05T20:51:29.237Z,11.99
2022-10-05T20:56:31.865Z,11.99
2022-10-05T21:01:34.431Z,11.97
2022-10-05T21:06:36.922Z,11.92
2022-10-05T21:11:39.655Z,11.89
2022-10-05T21:16:43.314Z,11.90
2022-10-05T21:21:46.421Z,11.92
2022-10-05T21:26:49.385Z,11.94
2022-10-05T21:31:52.277Z,11.94
2022-10-05T21:36:54.822Z,11.93
2022-10-05T21:41:57.241Z,11.90
2022-10-05T21:47:00.531Z,11.85
2022-10-05T21:52:03.381Z,11.82
2022-10-05T21:57:06.813Z,11.80
2022-10-05T22:02:09.333Z,11.78
2022-10-05T22:07:19.324Z,11.76
2022-10-05T22:12:23.466Z,11.75
2022-10-05T22:17:29.101Z,11.73
2022-10-05T22:22:33.017Z,11.73
2022-10-05T22:27:35.798Z,11.72
2022-10-05T22:32:38.265Z,11.70
2022-10-05T22:37:40.653Z,11.68
2022-10-05T22:42:43.150Z,11.68
2022-10-05T22:47:45.764Z,11.68
2022-10-05T22:52:52.423Z,11.66
2022-10-05T22:57:54.954Z,11.64
2022-10-05T23:02:57.426Z,11.63
2022-10-05T23:08:02.133Z,11.61
2022-10-05T23:13:04.906Z,11.59
2022-10-05T23:18:07.354Z,11.57
2022-10-05T23:23:10.184Z,11.55
2022-10-05T23:28:12.698Z,11.52
2022-10-05T23:33:15.133Z,11.49
2022-10-05T23:38:17.753Z,11.45
2022-10-05T23:43:20.304Z,11.40
2022-10-05T23:48:22.914Z,11.36
2022-10-05T23:53:25.575Z,11.34
2022-10-05T23:58:28.539Z,11.31
